Time;durP1;ratioP1;P1;durP2;ratioP2;P2;SDS_P1;SDS_P2;PMS_P1;PMS_P2;Temp;Humidity;BMP_temperature;BMP_pressure;BME280_temperature;BME280_humidity;BME280_pressure;Samples;Min_cycle;Max_cycle;Signal;HPM_P1;HPM_P2
2023/01/31 00:01:26;;;;;;;6.60;3.67;;;7.80;89.00;;;;;;7401562;19;19922;-76
2023/01/31 00:04:03;;;;;;;11.88;3.85;;;7.90;88.90;;;;;;7401631;19;19907;-77
2023/01/31 00:06:31;;;;;;;8.15;3.60;;;7.90;89.00;;;;;;7400762;19;20346;-75
2023/01/31 00:08:59;;;;;;;8.50;3.53;;;7.90;89.00;;;;;;7404160;19;19914;-76
2023/01/31 00:11:27;;;;;;;7.00;3.22;;;7.80;89.20;;;;;;7398378;19;19922;-76
2023/01/31 00:13:53;;;;;;;7.70;3.53;;;7.80;89.20;;;;;;7398724;19;19915;-77
2023/01/31 00:16:20;;;;;;;7.32;3.53;;;7.80;89.20;;;;;;7404670;19;19935;-75
2023/01/31 00:18:46;;;;;;;;;;;7.80;89.30;;;;;;7390348;19;19919;-76
2023/01/31 00:21:24;;;;;;;6.85;3.92;;;7.80;89.20;;;;;;7396660;19;19917;-76
2023/01/31 00:23:52;;;;;;;7.35;3.85;;;7.90;88.70;;;;;;7405223;19;19937;-77
2023/01/31 00:26:23;;;;;;;6.85;2.65;;;8.00;88.10;;;;;;7398202;19;19926;-76
2023/01/31 00:28:51;;;;;;;9.23;3.90;;;8.00;88.40;;;;;;7398140;19;20541;-76
2023/01/31 00:31:17;;;;;;;8.02;3.67;;;7.80;88.60;;;;;;7402724;19;20412;-75
2023/01/31 00:33:45;;;;;;;6.82;3.67;;;7.90;88.40;;;;;;7404606;19;19986;-74
2023/01/31 00:36:14;;;;;;;7.85;3.85;;;7.90;88.10;;;;;;7404468;19;20280;-75
2023/01/31 00:38:41;;;;;;;7.75;3.60;;;7.90;88.10;;;;;;7401611;19;19925;-75
2023/01/31 00:41:07;;;;;;;;;;;7.90;87.90;;;;;;7404156;19;19918;-76
2023/01/31 00:43:33;;;;;;;6.95;3.30;;;8.00;87.70;;;;;;7404574;19;19921;-74
2023/01/31 00:46:00;;;;;;;8.82;3.58;;;8.00;87.50;;;;;;7405543;19;19938;-74
2023/01/31 00:48:26;;;;;;;7.22;3.38;;;8.00;87.90;;;;;;7401056;19;19991;-74
2023/01/31 00:50:54;;;;;;;6.07;2.85;;;7.90;88.00;;;;;;7403068;19;19934;-74
2023/01/31 00:53:24;;;;;;;7.95;3.67;;;7.90;88.10;;;;;;7400752;19;19986;-74
2023/01/31 00:55:55;;;;;;;8.70;3.75;;;7.80;88.20;;;;;;7402819;19;20323;-74
2023/01/31 00:58:22;;;;;;;8.13;4.35;;;8.00;87.80;;;;;;7398299;19;19945;-74
2023/01/31 01:00:48;;;;;;;8.75;3.53;;;7.90;87.90;;;;;;7404781;19;19915;-74
2023/01/31 01:03:14;;;;;;;7.68;3.47;;;8.00;87.40;;;;;;7398762;19;19922;-75
2023/01/31 01:05:40;;;;;;;6.22;3.08;;;7.90;88.00;;;;;;7402204;19;19930;-74
2023/01/31 01:08:07;;;;;;;7.68;3.50;;;7.80;88.30;;;;;;7401052;19;19907;-74
2023/01/31 01:10:33;;;;;;;8.02;3.70;;;7.80;88.00;;;;;;7395239;19;19922;-74
2023/01/31 01:13:00;;;;;;;5.90;3.20;;;7.90;87.90;;;;;;7403241;19;19919;-74
2023/01/31 01:15:25;;;;;;;5.20;2.78;;;8.00;87.10;;;;;;7404206;19;19931;-75
2023/01/31 01:17:53;;;;;;;7.05;3.40;;;8.00;87.00;;;;;;7403594;19;19935;-74
2023/01/31 01:20:19;;;;;;;8.43;3.45;;;8.00;87.10;;;;;;7377600;19;19958;-74
2023/01/31 01:22:46;;;;;;;8.07;2.85;;;7.80;87.30;;;;;;7401134;19;19986;-75
2023/01/31 01:25:12;;;;;;;;;;;8.00;87.00;;;;;;7405373;19;19918;-75
2023/01/31 01:27:38;;;;;;;7.07;3.35;;;8.10;86.40;;;;;;7402954;19;20557;-74
2023/01/31 01:30:05;;;;;;;9.70;3.60;;;8.00;86.60;;;;;;7399498;19;19916;-75
2023/01/31 01:32:30;;;;;;;7.88;3.15;;;7.90;86.90;;;;;;7401189;19;19922;-74
2023/01/31 01:34:56;;;;;;;7.30;2.97;;;8.00;87.00;;;;;;7403553;19;20268;-74
2023/01/31 01:37:23;;;;;;;6.75;3.08;;;8.00;87.00;;;;;;7401245;19;19945;-75
2023/01/31 01:39:50;;;;;;;6.40;3.25;;;8.00;87.40;;;;;;7406563;19;19914;-75
2023/01/31 01:42:19;;;;;;;7.70;3.53;;;7.90;87.50;;;;;;7400197;19;20298;-74
2023/01/31 01:44:56;;;;;;;7.38;3.72;;;7.80;87.90;;;;;;7403682;19;20255;-74
2023/01/31 01:47:28;;;;;;;7.82;3.35;;;7.70;88.20;;;;;;7399770;19;21269;-74
2023/01/31 01:50:02;;;;;;;7.50;3.70;;;7.60;88.30;;;;;;7377807;19;19933;-75
2023/01/31 01:52:31;;;;;;;8.02;3.28;;;7.60;88.50;;;;;;7397515;19;19926;-74
2023/01/31 01:55:08;;;;;;;6.57;3.10;;;7.60;88.40;;;;;;7402353;19;19919;-75
2023/01/31 01:57:39;;;;;;;7.32;3.35;;;7.60;88.50;;;;;;7401930;19;19914;-75
2023/01/31 02:00:08;;;;;;;7.30;3.47;;;7.60;88.30;;;;;;7400420;19;19943;-74
2023/01/31 02:02:35;;;;;;;7.90;3.42;;;7.50;88.40;;;;;;7372227;19;19918;-73
2023/01/31 02:05:02;;;;;;;7.80;3.35;;;7.50;88.50;;;;;;7403840;19;20276;-75
2023/01/31 02:07:29;;;;;;;7.07;2.97;;;7.60;88.70;;;;;;7398610;19;20302;-73
2023/01/31 02:10:16;;;;;;;6.82;3.35;;;7.50;88.60;;;;;;7369400;19;19918;-74
2023/01/31 02:12:42;;;;;;;7.30;3.03;;;7.50;88.90;;;;;;7398299;19;19911;-74
2023/01/31 02:15:09;;;;;;;7.93;3.35;;;7.50;88.90;;;;;;7400176;19;19914;-74
2023/01/31 02:17:34;;;;;;;7.80;3.47;;;7.40;89.10;;;;;;7399609;19;19947;-75
2023/01/31 02:20:17;;;;;;;9.18;3.67;;;7.40;89.20;;;;;;7400572;19;19923;-74
2023/01/31 02:23:06;;;;;;;6.88;3.10;;;7.40;89.20;;;;;;7402754;19;19921;-74
2023/01/31 02:25:32;;;;;;;7.13;2.53;;;7.40;89.00;;;;;;7403764;19;19978;-74
2023/01/31 02:28:31;;;;;;;5.80;2.15;;;7.40;89.00;;;;;;7409494;19;19927;-74
2023/01/31 02:31:30;;;;;;;6.78;3.17;;;7.50;88.20;;;;;;7404098;19;19915;-74
2023/01/31 02:34:24;;;;;;;7.15;2.88;;;7.50;88.20;;;;;;7382246;19;19926;-74
2023/01/31 02:37:19;;;;;;;8.45;3.80;;;7.50;88.00;;;;;;7404133;19;20543;-73
2023/01/31 02:39:50;;;;;;;6.97;3.10;;;7.60;87.80;;;;;;7382645;19;20273;-74
2023/01/31 02:42:24;;;;;;;7.35;3.03;;;7.50;88.00;;;;;;7403899;19;19922;-74
2023/01/31 02:45:18;;;;;;;9.82;2.83;;;7.50;88.00;;;;;;7405599;19;19918;-74
2023/01/31 02:48:03;;;;;;;7.45;3.20;;;7.60;87.70;;;;;;7387141;19;19919;-73
2023/01/31 02:50:39;;;;;;;;;;;7.50;87.70;;;;;;7408138;19;20492;-74
2023/01/31 02:53:32;;;;;;;7.43;3.20;;;7.40;88.40;;;;;;7405437;19;19915;-75
2023/01/31 02:56:14;;;;;;;7.00;3.28;;;7.30;88.80;;;;;;7406505;19;19917;-74
2023/01/31 02:58:43;;;;;;;6.82;3.20;;;7.30;89.00;;;;;;7383536;19;20339;-74
2023/01/31 03:01:14;;;;;;;8.20;4.00;;;7.20;89.10;;;;;;7408319;19;19947;-74
2023/01/31 03:03:40;;;;;;;7.53;3.20;;;7.20;89.60;;;;;;7405488;19;19914;-75
2023/01/31 03:06:09;;;;;;;7.57;3.28;;;7.20;89.30;;;;;;7406022;19;19927;-74
2023/01/31 03:08:40;;;;;;;7.20;3.22;;;7.20;89.20;;;;;;7407715;19;20348;-74
2023/01/31 03:11:07;;;;;;;7.82;3.28;;;7.10;89.60;;;;;;7404019;19;19935;-74
2023/01/31 03:13:46;;;;;;;;;;;7.00;90.10;;;;;;7410917;19;19946;-74
2023/01/31 03:19:28;;;;;;;8.85;3.15;;;6.80;90.30;;;;;;7407726;19;19939;-74
2023/01/31 03:22:09;;;;;;;6.75;3.20;;;6.80;90.30;;;;;;7405567;19;19950;-74
2023/01/31 03:24:37;;;;;;;8.02;3.72;;;6.70;90.50;;;;;;7407110;19;20358;-74
2023/01/31 03:27:03;;;;;;;6.97;3.10;;;6.60;90.60;;;;;;7393479;19;19922;-75
2023/01/31 03:29:33;;;;;;;8.50;3.78;;;6.50;90.70;;;;;;7367371;19;19943;-74
2023/01/31 03:32:07;;;;;;;11.30;3.35;;;6.60;90.70;;;;;;7404495;19;19956;-74
2023/01/31 03:34:35;;;;;;;7.88;3.22;;;6.60;90.90;;;;;;7400987;19;20342;-74
2023/01/31 03:37:15;;;;;;;8.40;4.13;;;6.60;90.60;;;;;;7405983;19;19927;-74
2023/01/31 03:40:09;;;;;;;8.82;3.50;;;6.70;90.90;;;;;;7407213;19;19929;-75
2023/01/31 03:42:57;;;;;;;7.43;3.17;;;6.90;90.30;;;;;;7407061;19;20235;-74
2023/01/31 03:45:33;;;;;;;8.80;4.15;;;6.90;89.40;;;;;;7406875;19;19934;-74
2023/01/31 03:48:05;;;;;;;8.48;3.83;;;7.00;90.60;;;;;;7408864;19;19921;-74
2023/01/31 03:50:39;;;;;;;7.82;3.55;;;6.90;90.90;;;;;;7406833;19;19918;-75
2023/01/31 03:53:17;;;;;;;11.20;3.80;;;6.80;90.90;;;;;;7403865;19;19914;-75
2023/01/31 03:55:52;;;;;;;6.82;2.78;;;6.80;91.00;;;;;;7406846;19;19922;-75
2023/01/31 03:58:22;;;;;;;8.25;3.25;;;6.80;90.90;;;;;;7406475;19;19907;-74
2023/01/31 04:00:51;;;;;;;7.20;3.33;;;6.90;90.50;;;;;;7406704;19;19914;-75
2023/01/31 04:03:27;;;;;;;8.48;4.07;;;7.10;89.40;;;;;;7405432;19;19919;-75
2023/01/31 04:05:53;;;;;;;6.28;3.08;;;7.00;89.90;;;;;;7405940;19;19914;-74
2023/01/31 04:08:20;;;;;;;7.25;3.92;;;7.10;88.90;;;;;;7400692;19;19915;-75
2023/01/31 04:10:45;;;;;;;6.45;3.05;;;7.00;90.20;;;;;;7403103;19;19923;-74
2023/01/31 04:13:11;;;;;;;6.43;3.10;;;7.10;88.30;;;;;;7405615;19;20349;-74
2023/01/31 04:15:37;;;;;;;8.50;2.83;;;7.10;89.00;;;;;;7353000;19;19918;-74
2023/01/31 04:18:03;;;;;;;6.45;2.95;;;7.20;88.10;;;;;;7399895;19;19914;-75
2023/01/31 04:20:29;;;;;;;8.35;3.10;;;7.20;88.10;;;;;;7400756;19;19922;-74
2023/01/31 04:22:55;;;;;;;6.30;2.75;;;7.20;88.30;;;;;;7405469;19;19911;-75
2023/01/31 04:25:20;;;;;;;7.03;2.72;;;7.20;88.00;;;;;;7403448;19;19910;-77
2023/01/31 04:27:46;;;;;;;8.30;3.15;;;7.20;88.30;;;;;;7403039;19;19931;-74
2023/01/31 04:30:12;;;;;;;6.75;2.67;;;7.10;88.20;;;;;;7402038;19;19910;-74
2023/01/31 04:32:38;;;;;;;5.25;2.42;;;7.30;87.90;;;;;;7405724;19;20064;-74
2023/01/31 04:35:04;;;;;;;6.63;2.90;;;7.30;87.90;;;;;;7403919;19;20242;-74
2023/01/31 04:37:30;;;;;;;6.25;2.65;;;7.30;87.80;;;;;;7406748;19;19918;-75
2023/01/31 04:39:56;;;;;;;4.95;2.50;;;7.40;87.70;;;;;;7400926;19;19926;-74
2023/01/31 04:42:21;;;;;;;5.15;2.47;;;7.30;87.90;;;;;;7399716;19;19978;-74
2023/01/31 04:44:47;;;;;;;6.07;3.00;;;7.20;88.30;;;;;;7401589;19;19915;-74
2023/01/31 04:47:14;;;;;;;5.90;2.67;;;7.20;88.00;;;;;;7402933;19;19930;-76
2023/01/31 04:49:40;;;;;;;6.15;2.53;;;7.10;88.10;;;;;;7403474;19;19919;-73
2023/01/31 04:52:06;;;;;;;5.90;2.38;;;7.20;88.30;;;;;;7402110;19;19925;-74
2023/01/31 04:54:31;;;;;;;7.22;2.85;;;7.20;88.50;;;;;;7403400;19;20612;-74
2023/01/31 04:56:57;;;;;;;7.25;2.92;;;7.10;88.40;;;;;;7405380;19;20609;-73
2023/01/31 04:59:23;;;;;;;6.50;2.78;;;7.10;88.60;;;;;;7402960;19;19940;-74
2023/01/31 05:01:49;;;;;;;4.72;2.30;;;7.10;88.40;;;;;;7398431;19;19926;-74
2023/01/31 05:04:14;;;;;;;5.03;2.78;;;7.10;88.50;;;;;;7400620;19;19965;-75
2023/01/31 05:06:40;;;;;;;5.40;2.25;;;7.00;89.00;;;;;;7402263;19;19913;-74
2023/01/31 05:09:06;;;;;;;6.18;2.63;;;7.10;88.40;;;;;;7400588;19;19978;-74
2023/01/31 05:11:33;;;;;;;5.75;2.70;;;7.00;88.90;;;;;;7405223;19;19919;-74
2023/01/31 05:13:59;;;;;;;7.70;3.20;;;7.00;89.00;;;;;;7401362;19;19918;-74
2023/01/31 05:16:25;;;;;;;6.93;2.97;;;6.90;89.10;;;;;;7402589;19;19932;-74
2023/01/31 05:18:50;;;;;;;10.48;3.13;;;6.80;89.80;;;;;;7403067;19;19914;-75
2023/01/31 05:21:16;;;;;;;6.80;2.45;;;6.70;89.80;;;;;;7401857;19;20266;-74
2023/01/31 05:23:42;;;;;;;5.55;2.65;;;6.80;89.40;;;;;;7401249;19;19965;-74
2023/01/31 05:26:08;;;;;;;5.60;2.50;;;6.90;89.00;;;;;;7401006;19;20371;-73
2023/01/31 05:28:33;;;;;;;5.75;2.63;;;6.80;88.80;;;;;;7406230;19;20251;-75
2023/01/31 05:31:05;;;;;;;5.93;2.40;;;6.90;88.80;;;;;;7403695;19;19935;-74
2023/01/31 05:33:32;;;;;;;7.88;2.70;;;6.80;89.70;;;;;;7402853;19;19914;-74
2023/01/31 05:35:58;;;;;;;7.03;2.97;;;6.70;89.80;;;;;;7402287;19;19958;-73
2023/01/31 05:38:24;;;;;;;5.93;2.45;;;6.60;90.10;;;;;;7395159;19;19978;-75
2023/01/31 05:40:50;;;;;;;6.78;2.70;;;6.80;88.60;;;;;;7403332;19;19952;-74
2023/01/31 05:43:16;;;;;;;5.75;2.28;;;6.90;88.50;;;;;;7400012;19;19925;-75
2023/01/31 05:45:42;;;;;;;5.18;2.35;;;7.10;88.20;;;;;;7403075;19;19956;-76
2023/01/31 05:48:08;;;;;;;6.22;2.65;;;7.10;87.80;;;;;;7400586;19;19918;-75
2023/01/31 05:50:34;;;;;;;6.25;2.60;;;7.10;87.80;;;;;;7397145;19;19926;-75
2023/01/31 05:53:04;;;;;;;6.03;2.20;;;7.00;88.40;;;;;;7400831;19;19927;-75
2023/01/31 05:55:30;;;;;;;7.28;2.78;;;7.00;88.30;;;;;;7399977;19;19911;-74
2023/01/31 05:57:56;;;;;;;7.53;2.83;;;6.80;88.70;;;;;;7400379;19;20572;-74
2023/01/31 06:00:22;;;;;;;6.68;2.58;;;6.90;88.70;;;;;;7405449;19;19910;-75
2023/01/31 06:02:49;;;;;;;7.90;3.60;;;6.80;88.70;;;;;;7410901;19;19915;-75
2023/01/31 06:05:15;;;;;;;5.65;2.72;;;6.80;88.90;;;;;;7387578;19;19921;-75
2023/01/31 06:07:41;;;;;;;7.32;2.92;;;6.80;88.50;;;;;;7405984;19;19914;-76
2023/01/31 06:10:08;;;;;;;6.03;2.72;;;6.80;88.50;;;;;;7403088;19;19946;-75
2023/01/31 06:12:34;;;;;;;5.28;2.67;;;6.80;88.90;;;;;;7408171;19;20416;-76
2023/01/31 06:15:01;;;;;;;6.05;3.08;;;6.70;89.30;;;;;;7409944;19;19943;-74
2023/01/31 06:17:27;;;;;;;5.45;2.67;;;6.50;89.60;;;;;;7409653;19;19924;-74
2023/01/31 06:19:52;;;;;;;7.30;3.08;;;6.50;89.70;;;;;;7378562;19;19922;-76
2023/01/31 06:22:19;;;;;;;6.90;3.13;;;6.50;89.50;;;;;;7405624;19;19915;-75
2023/01/31 06:24:46;;;;;;;5.85;2.58;;;6.50;90.00;;;;;;7410253;19;19927;-75
2023/01/31 06:27:13;;;;;;;6.00;3.28;;;6.40;90.00;;;;;;7407387;19;19971;-76
2023/01/31 06:29:38;;;;;;;8.00;3.85;;;6.30;90.20;;;;;;7390288;19;19943;-75
2023/01/31 06:32:04;;;;;;;8.80;2.33;;;6.20;90.40;;;;;;7405414;19;19935;-74
2023/01/31 06:34:30;;;;;;;6.90;3.25;;;6.20;90.40;;;;;;7408217;19;19922;-74
2023/01/31 06:36:57;;;;;;;5.93;2.65;;;6.20;90.40;;;;;;7407163;19;19918;-75
2023/01/31 06:39:23;;;;;;;7.80;3.10;;;6.20;90.30;;;;;;7408032;19;19989;-74
2023/01/31 06:41:49;;;;;;;6.78;2.53;;;6.30;90.10;;;;;;7414478;19;20243;-75
2023/01/31 06:44:15;;;;;;;7.20;3.03;;;6.30;90.00;;;;;;7406743;19;19947;-75
2023/01/31 06:46:41;;;;;;;6.38;2.83;;;6.30;90.00;;;;;;7408656;19;20274;-75
2023/01/31 06:49:07;;;;;;;6.35;2.58;;;6.40;90.00;;;;;;7408507;19;20457;-76
2023/01/31 06:51:33;;;;;;;5.88;2.33;;;6.20;90.30;;;;;;7407733;19;19910;-75
2023/01/31 06:53:58;;;;;;;5.65;2.80;;;6.10;90.40;;;;;;7407728;19;19915;-75
2023/01/31 06:56:24;;;;;;;5.50;2.78;;;6.10;90.60;;;;;;7404893;19;19948;-74
2023/01/31 06:58:50;;;;;;;7.10;3.53;;;6.00;90.70;;;;;;7408817;19;19921;-74
2023/01/31 07:01:16;;;;;;;10.45;3.40;;;6.00;90.80;;;;;;7405191;19;19910;-74
2023/01/31 07:03:42;;;;;;;7.70;3.05;;;5.90;90.90;;;;;;7410388;19;20387;-75
2023/01/31 07:06:09;;;;;;;5.90;2.85;;;6.00;90.80;;;;;;7407481;19;19921;-74
2023/01/31 07:08:36;;;;;;;7.20;2.95;;;5.90;90.90;;;;;;7376608;19;20338;-75
2023/01/31 07:11:04;;;;;;;7.25;3.13;;;5.90;90.90;;;;;;7405656;19;19910;-75
2023/01/31 07:13:31;;;;;;;7.22;3.05;;;5.90;91.00;;;;;;7408057;19;19925;-76
2023/01/31 07:15:56;;;;;;;7.15;2.83;;;5.90;90.80;;;;;;7406555;19;19914;-74
2023/01/31 07:18:23;;;;;;;7.50;3.63;;;6.00;90.80;;;;;;7406150;19;19935;-75
2023/01/31 07:20:49;;;;;;;8.75;2.90;;;6.10;90.60;;;;;;7406240;19;19922;-75
2023/01/31 07:23:16;;;;;;;6.43;2.95;;;6.30;90.30;;;;;;7408128;19;19934;-75
2023/01/31 07:25:42;;;;;;;6.65;3.35;;;6.30;90.30;;;;;;7407919;19;20277;-74
2023/01/31 07:28:08;;;;;;;9.88;3.00;;;6.30;90.40;;;;;;7374967;19;19922;-74
2023/01/31 07:30:35;;;;;;;7.43;3.35;;;6.30;90.40;;;;;;7406988;19;20343;-75
2023/01/31 07:33:01;;;;;;;5.63;3.17;;;6.30;90.40;;;;;;7394540;19;19925;-75
2023/01/31 07:35:27;;;;;;;6.35;2.78;;;6.30;90.40;;;;;;7401488;19;19911;-74
2023/01/31 07:37:53;;;;;;;7.53;3.47;;;6.20;90.70;;;;;;7399205;19;19918;-75
2023/01/31 07:40:19;;;;;;;7.47;3.65;;;6.10;90.90;;;;;;7398421;19;20291;-76
2023/01/31 07:42:46;;;;;;;8.68;3.35;;;6.00;91.00;;;;;;7408819;19;19929;-75
2023/01/31 07:45:14;;;;;;;9.75;3.85;;;6.00;91.00;;;;;;7405738;19;20258;-75
2023/01/31 07:47:41;;;;;;;6.45;3.53;;;6.10;90.80;;;;;;7406588;19;19918;-75
2023/01/31 07:50:08;;;;;;;7.47;3.28;;;6.30;90.60;;;;;;7404439;19;19970;-75
2023/01/31 07:52:34;;;;;;;8.70;3.83;;;6.30;90.60;;;;;;7402874;19;19926;-74
2023/01/31 07:54:59;;;;;;;7.75;4.32;;;6.40;90.60;;;;;;7400872;19;19936;-73
2023/01/31 07:57:25;;;;;;;7.20;3.40;;;6.30;90.70;;;;;;7402886;19;20476;-74
2023/01/31 07:59:51;;;;;;;11.98;4.30;;;6.30;90.70;;;;;;7403320;19;19914;-75
2023/01/31 08:05:02;;;;;;;9.70;4.30;;;6.30;90.90;;;;;;7405281;19;20338;-75
2023/01/31 08:07:28;;;;;;;9.55;4.15;;;6.30;90.90;;;;;;7390470;19;20359;-76
2023/01/31 08:09:54;;;;;;;11.30;4.55;;;6.50;90.40;;;;;;7398010;19;19919;-74
2023/01/31 08:12:21;;;;;;;9.48;4.30;;;6.60;90.50;;;;;;7363318;19;20431;-75
2023/01/31 08:14:46;;;;;;;9.60;3.65;;;6.70;90.30;;;;;;7388256;19;19932;-75
2023/01/31 08:17:12;;;;;;;7.88;3.88;;;6.80;90.20;;;;;;7343129;19;19915;-74
2023/01/31 08:19:38;;;;;;;10.00;4.45;;;6.90;89.50;;;;;;7396750;19;20246;-74
2023/01/31 08:22:05;;;;;;;10.73;4.28;;;7.00;90.10;;;;;;7383554;19;20427;-75
2023/01/31 08:24:31;;;;;;;11.10;4.20;;;7.00;90.10;;;;;;7389890;19;19907;-76
2023/01/31 08:26:58;;;;;;;11.23;4.80;;;7.00;90.10;;;;;;7378429;19;19926;-74
2023/01/31 08:29:24;;;;;;;12.38;4.90;;;7.10;90.00;;;;;;7375677;19;19950;-76
2023/01/31 08:31:51;;;;;;;19.38;4.97;;;7.10;90.00;;;;;;7395627;19;19930;-76
2023/01/31 08:34:17;;;;;;;10.27;4.80;;;7.20;89.70;;;;;;7397731;19;19921;-75
2023/01/31 08:36:45;;;;;;;17.27;7.70;;;8.50;89.80;;;;;;7391434;19;19923;-75
2023/01/31 08:39:11;;;;;;;11.35;4.35;;;10.70;84.00;;;;;;7381023;19;19922;-76
2023/01/31 08:41:38;;;;;;;9.88;4.30;;;11.90;80.60;;;;;;7385223;19;20256;-75
2023/01/31 08:44:07;;;;;;;8.85;4.30;;;13.10;78.80;;;;;;7393682;19;19934;-76
2023/01/31 08:46:35;;;;;;;9.73;4.43;;;13.70;77.80;;;;;;7393057;19;19915;-75
2023/01/31 08:49:04;;;;;;;6.63;3.55;;;14.50;76.40;;;;;;7389206;19;20626;-76
2023/01/31 08:51:30;;;;;;;9.80;5.70;;;14.00;75.90;;;;;;7399804;19;19926;-76
2023/01/31 08:53:56;;;;;;;14.38;5.80;;;13.70;76.00;;;;;;7404397;19;19923;-76
2023/01/31 08:56:24;;;;;;;14.07;6.03;;;12.30;77.60;;;;;;7392753;19;20251;-76
2023/01/31 08:58:53;;;;;;;10.32;6.00;;;13.00;77.80;;;;;;7386928;19;19998;-76
2023/01/31 09:01:20;;;;;;;12.48;6.03;;;13.20;77.60;;;;;;7395696;19;19925;-75
2023/01/31 09:03:47;;;;;;;12.35;5.22;;;13.60;77.10;;;;;;7388563;19;19919;-75
2023/01/31 09:06:17;;;;;;;;;;;13.90;76.00;;;;;;7342314;19;19921;-75
2023/01/31 09:08:43;;;;;;;11.25;5.55;;;14.60;75.50;;;;;;7389816;19;19918;-75
2023/01/31 09:11:09;;;;;;;10.98;5.22;;;14.80;74.80;;;;;;7390861;19;19940;-76
2023/01/31 09:13:35;;;;;;;10.75;5.45;;;14.90;74.70;;;;;;7384176;19;19918;-75
2023/01/31 09:16:04;;;;;;;10.80;5.80;;;14.40;74.30;;;;;;7399446;19;19926;-77
2023/01/31 09:18:32;;;;;;;8.95;5.78;;;14.10;75.20;;;;;;7396645;19;20465;-76
2023/01/31 09:21:07;;;;;;;11.30;6.07;;;13.80;75.00;;;;;;7392187;19;19928;-76
2023/01/31 09:23:33;;;;;;;12.15;6.85;;;12.90;77.10;;;;;;7384690;19;20845;-78
2023/01/31 09:25:59;;;;;;;11.05;6.72;;;12.10;77.60;;;;;;7376695;19;19997;-77
2023/01/31 09:28:25;;;;;;;11.40;6.72;;;11.40;78.70;;;;;;7370033;19;20381;-76
2023/01/31 09:30:55;;;;;;;16.67;7.03;;;11.50;79.60;;;;;;7395123;19;19921;-76
2023/01/31 09:33:23;;;;;;;9.52;5.68;;;11.40;79.80;;;;;;7383560;19;20327;-76
2023/01/31 09:35:56;;;;;;;9.75;6.00;;;11.00;80.00;;;;;;7379131;19;19957;-74
2023/01/31 09:38:22;;;;;;;14.30;6.55;;;10.90;80.50;;;;;;7391922;19;21372;-76
2023/01/31 09:40:48;;;;;;;12.55;6.40;;;11.10;80.20;;;;;;7375909;19;19922;-76
2023/01/31 09:43:16;;;;;;;9.63;5.57;;;11.20;79.80;;;;;;7393275;19;19923;-76
2023/01/31 09:45:44;;;;;;;11.30;5.30;;;11.30;79.90;;;;;;7394578;19;20289;-75
2023/01/31 09:48:17;;;;;;;11.32;6.15;;;11.50;79.10;;;;;;7402901;19;19930;-75
2023/01/31 09:50:49;;;;;;;9.88;5.97;;;11.30;78.90;;;;;;7393784;19;19926;-74
2023/01/31 09:53:20;;;;;;;11.57;6.13;;;11.50;79.20;;;;;;7383684;19;19923;-75
2023/01/31 09:56:07;;;;;;;10.13;5.40;;;12.20;78.40;;;;;;7398237;19;19998;-76
2023/01/31 09:58:57;;;;;;;10.90;4.70;;;12.80;77.40;;;;;;7407045;19;19934;-74
2023/01/31 10:01:36;;;;;;;8.60;4.90;;;13.00;75.00;;;;;;7399054;19;20580;-75
2023/01/31 10:04:29;;;;;;;8.23;4.20;;;13.60;73.80;;;;;;7401643;19;19935;-75
2023/01/31 10:07:03;;;;;;;7.72;4.80;;;14.00;72.80;;;;;;7392895;19;19926;-74
2023/01/31 10:09:38;;;;;;;8.32;4.25;;;14.30;72.50;;;;;;7396806;19;19926;-76
2023/01/31 10:12:20;;;;;;;8.50;4.68;;;14.30;72.50;;;;;;7387523;19;19935;-74
2023/01/31 10:15:12;;;;;;;9.77;4.40;;;14.20;72.90;;;;;;7405087;19;20330;-75
2023/01/31 10:17:44;;;;;;;8.48;4.65;;;14.40;73.00;;;;;;7400816;19;20339;-77
2023/01/31 10:20:33;;;;;;;10.57;5.00;;;14.60;72.70;;;;;;7397597;19;19935;-75
2023/01/31 10:23:06;;;;;;;8.27;4.55;;;14.70;72.70;;;;;;7400815;19;19915;-74
2023/01/31 10:25:50;;;;;;;9.48;5.30;;;15.00;72.10;;;;;;7397836;19;19936;-75
2023/01/31 10:28:22;;;;;;;10.23;5.40;;;14.60;72.50;;;;;;7394274;19;20269;-76
2023/01/31 10:31:13;;;;;;;8.50;5.53;;;14.50;72.90;;;;;;7396994;19;19925;-75
2023/01/31 10:33:59;;;;;;;9.93;5.65;;;14.80;72.70;;;;;;7400539;19;20250;-75
2023/01/31 10:36:39;;;;;;;8.95;5.38;;;14.80;73.30;;;;;;7402851;19;19943;-75
2023/01/31 10:39:20;;;;;;;10.95;5.93;;;14.70;73.60;;;;;;7392748;19;19925;-76
2023/01/31 10:42:17;;;;;;;9.32;5.70;;;15.00;73.60;;;;;;7404900;19;19914;-76
2023/01/31 10:44:46;;;;;;;9.48;5.45;;;15.00;73.50;;;;;;7406842;19;19922;-75
2023/01/31 10:47:16;;;;;;;11.20;6.47;;;15.10;72.70;;;;;;7404446;19;19918;-75
2023/01/31 10:49:48;;;;;;;9.80;6.18;;;14.50;73.30;;;;;;7404179;19;19914;-74
2023/01/31 10:52:29;;;;;;;9.20;6.40;;;14.20;73.50;;;;;;7399154;19;19920;-75
2023/01/31 10:55:27;;;;;;;10.50;5.90;;;14.20;74.30;;;;;;7401846;19;19952;-77
2023/01/31 10:57:53;;;;;;;11.18;5.72;;;14.10;73.60;;;;;;7398852;19;19914;-75
2023/01/31 11:00:27;;;;;;;9.13;5.93;;;14.10;74.40;;;;;;7360924;19;20355;-75
2023/01/31 11:02:53;;;;;;;9.60;5.80;;;14.60;74.20;;;;;;7402313;19;19911;-75
2023/01/31 11:05:23;;;;;;;10.63;6.88;;;15.20;73.60;;;;;;7388836;19;19930;-74
2023/01/31 11:07:49;;;;;;;10.95;6.38;;;15.20;73.10;;;;;;7398111;19;20082;-76
2023/01/31 11:10:23;;;;;;;10.20;5.68;;;15.20;72.60;;;;;;7392546;19;19915;-74
2023/01/31 11:13:08;;;;;;;8.52;6.13;;;15.50;72.70;;;;;;7386876;19;20331;-74
2023/01/31 11:15:41;;;;;;;9.65;5.68;;;16.10;71.70;;;;;;7390990;19;20303;-76
2023/01/31 11:18:15;;;;;;;10.85;6.40;;;16.30;70.90;;;;;;7394683;19;19922;-75
2023/01/31 11:20:46;;;;;;;9.13;6.25;;;16.00;71.30;;;;;;7390966;19;19914;-75
2023/01/31 11:23:16;;;;;;;13.15;6.43;;;16.20;70.70;;;;;;7391347;19;20511;-75
2023/01/31 11:25:48;;;;;;;10.65;6.47;;;16.10;70.40;;;;;;7394689;19;19948;-75
2023/01/31 11:28:34;;;;;;;10.30;6.18;;;16.10;71.10;;;;;;7156550;19;4568686;-75
2023/01/31 11:31:02;;;;;;;11.82;6.60;;;16.80;69.90;;;;;;7400210;19;19926;-75
2023/01/31 11:33:39;;;;;;;10.07;5.65;;;16.90;69.90;;;;;;7370853;19;19927;-76
2023/01/31 11:36:10;;;;;;;8.43;5.85;;;16.80;69.10;;;;;;7396311;19;19934;-76
2023/01/31 11:38:36;;;;;;;11.73;6.22;;;17.30;69.10;;;;;;7402160;19;19943;-75
2023/01/31 11:41:27;;;;;;;9.98;6.45;;;17.10;68.40;;;;;;7397306;19;19914;-76
2023/01/31 11:44:09;;;;;;;8.02;5.40;;;16.80;68.90;;;;;;7396132;19;21004;-75
2023/01/31 11:47:03;;;;;;;9.63;6.07;;;16.80;68.60;;;;;;7403636;19;19914;-74
2023/01/31 11:49:38;;;;;;;8.40;5.70;;;17.50;68.70;;;;;;7402533;19;19946;-75
2023/01/31 11:52:17;;;;;;;8.35;5.82;;;17.60;68.60;;;;;;7396398;19;19917;-76
2023/01/31 11:54:49;;;;;;;8.82;6.28;;;18.20;67.80;;;;;;7394572;19;20247;-76
2023/01/31 11:57:31;;;;;;;8.45;5.80;;;18.00;68.10;;;;;;7386535;19;19935;-76
2023/01/31 11:59:59;;;;;;;10.13;6.43;;;18.40;67.50;;;;;;7399795;19;19914;-75
2023/01/31 12:02:40;;;;;;;8.65;5.60;;;18.10;67.20;;;;;;7398721;19;19921;-75
2023/01/31 12:05:16;;;;;;;9.75;6.20;;;18.60;66.60;;;;;;7397569;19;19918;-76
2023/01/31 12:07:43;;;;;;;10.25;5.75;;;18.40;67.00;;;;;;7400936;19;19915;-76
2023/01/31 12:10:33;;;;;;;10.73;5.60;;;19.20;66.10;;;;;;7348994;19;19915;-76
2023/01/31 12:13:15;;;;;;;9.27;5.95;;;18.80;66.00;;;;;;7400119;19;20199;-76
2023/01/31 12:15:56;;;;;;;11.60;6.80;;;19.80;66.20;;;;;;7400338;19;19918;-75
2023/01/31 12:18:58;;;;;;;10.65;6.88;;;19.60;65.50;;;;;;7389863;19;19941;-76
2023/01/31 12:21:52;;;;;;;9.13;6.50;;;18.40;64.80;;;;;;7398025;19;19982;-75
2023/01/31 12:24:38;;;;;;;11.10;6.80;;;19.20;66.30;;;;;;7388213;19;19950;-76
2023/01/31 12:27:16;;;;;;;13.65;5.55;;;20.30;65.00;;;;;;7396778;19;19918;-76
2023/01/31 12:29:53;;;;;;;10.25;6.28;;;20.90;63.80;;;;;;7406018;19;19922;-76
2023/01/31 12:32:50;;;;;;;10.82;7.18;;;20.70;63.90;;;;;;7394068;19;19926;-76
2023/01/31 12:35:29;;;;;;;9.43;6.63;;;20.10;64.00;;;;;;7401643;19;20394;-76
2023/01/31 12:38:13;;;;;;;11.60;6.95;;;21.00;64.10;;;;;;7400300;19;20534;-76
2023/01/31 12:40:54;;;;;;;9.55;6.85;;;21.90;63.20;;;;;;7403355;19;19915;-76
2023/01/31 12:43:39;;;;;;;12.85;7.15;;;22.60;62.10;;;;;;7401375;19;20412;-76
2023/01/31 12:46:33;;;;;;;9.20;6.30;;;22.80;61.40;;;;;;7359079;19;19922;-76
2023/01/31 12:49:02;;;;;;;11.13;7.68;;;22.90;61.30;;;;;;7398956;19;20326;-76
2023/01/31 12:51:45;;;;;;;15.88;6.80;;;23.50;60.60;;;;;;7393179;19;19942;-76
2023/01/31 12:54:33;;;;;;;10.18;6.80;;;22.80;60.80;;;;;;7402485;19;20335;-76
2023/01/31 12:57:25;;;;;;;10.85;7.15;;;23.80;60.60;;;;;;7383453;19;19906;-77
2023/01/31 13:00:03;;;;;;;12.30;6.88;;;23.80;60.00;;;;;;7401049;19;19917;-77
2023/01/31 13:02:40;;;;;;;9.65;6.85;;;23.30;60.20;;;;;;7382422;19;19918;-77
2023/01/31 13:05:25;;;;;;;10.43;6.63;;;22.80;60.30;;;;;;7367584;19;20323;-76
2023/01/31 13:08:16;;;;;;;10.35;6.43;;;23.10;60.50;;;;;;7400304;19;19922;-74
2023/01/31 13:11:01;;;;;;;9.77;6.95;;;22.50;60.60;;;;;;7401636;19;20457;-76
2023/01/31 13:13:29;;;;;;;10.80;7.13;;;23.30;59.70;;;;;;7401860;19;19926;-76
2023/01/31 13:16:06;;;;;;;9.23;6.93;;;20.60;60.20;;;;;;7399257;19;19917;-76
2023/01/31 13:18:35;;;;;;;11.45;7.00;;;22.20;61.20;;;;;;7403420;19;19911;-76
2023/01/31 13:21:12;;;;;;;9.88;6.90;;;23.70;59.90;;;;;;7401359;19;19920;-76